createdAt,value
2022-12-23T00:01:02.342Z,17.49
2022-12-23T00:02:04.456Z,17.32
2022-12-23T00:03:07.185Z,17.57
2022-12-23T00:04:09.124Z,17.05
2022-12-23T00:05:11.324Z,16.41
2022-12-23T00:06:17.123Z,18.61
2022-12-23T00:07:19.288Z,17.10
2022-12-23T00:08:22.881Z,17.53
2022-12-23T00:09:24.716Z,17.37
2022-12-23T00:10:26.621Z,16.35
2022-12-23T00:11:29.160Z,17.49
2022-12-23T00:12:49.495Z,17.94
2022-12-23T00:14:14.627Z,17.65
2022-12-23T00:15:20.780Z,18.80
2022-12-23T00:16:22.659Z,16.89
2022-12-23T00:17:27.182Z,16.55
2022-12-23T00:18:29.057Z,18.26
2022-12-23T00:19:30.902Z,18.31
2022-12-23T00:20:34.311Z,16.87
2022-12-23T00:21:36.274Z,17.20
2022-12-23T00:22:56.687Z,16.43
2022-12-23T00:23:58.604Z,16.68
2022-12-23T00:25:00.360Z,18.20
2022-12-23T00:26:03.392Z,16.61
2022-12-23T00:27:05.288Z,16.40
2022-12-23T00:28:14.401Z,15.71
2022-12-23T00:29:16.618Z,16.28
2022-12-23T00:30:18.451Z,17.05
2022-12-23T00:31:21.340Z,16.59
2022-12-23T00:32:23.323Z,17.11
2022-12-23T00:33:31.129Z,17.51
2022-12-23T00:34:32.910Z,15.91
2022-12-23T00:35:34.804Z,15.06
2022-12-23T00:36:38.458Z,14.74
2022-12-23T00:37:40.428Z,15.65
2022-12-23T00:39:00.684Z,15.63
2022-12-23T00:40:21.304Z,14.91
2022-12-23T00:41:42.283Z,14.30
2022-12-23T00:42:56.186Z,14.52
2022-12-23T00:43:59.259Z,14.10
2022-12-23T00:45:16.083Z,14.80
2022-12-23T00:46:18.538Z,13.99
2022-12-23T00:48:04.215Z,14.78
2022-12-23T00:49:25.173Z,14.73
2022-12-23T00:50:28.086Z,14.44
2022-12-23T00:51:29.846Z,14.79
2022-12-23T00:52:31.694Z,16.11
2022-12-23T00:53:33.758Z,15.46
2022-12-23T00:54:35.911Z,14.57
2022-12-23T00:55:37.768Z,14.26
2022-12-23T00:56:39.672Z,13.60
2022-12-23T00:57:41.479Z,14.49
2022-12-23T00:58:43.337Z,13.25
2022-12-23T00:59:45.209Z,14.12
2022-12-23T01:01:07.529Z,13.57
2022-12-23T01:02:30.604Z,13.79
2022-12-23T01:03:52.319Z,13.51
2022-12-23T01:05:12.998Z,14.88
2022-12-23T01:06:16.484Z,13.30
2022-12-23T01:07:18.566Z,13.28
2022-12-23T01:08:20.507Z,13.93
2022-12-23T01:09:22.694Z,13.86
2022-12-23T01:10:24.637Z,13.30
2022-12-23T01:11:26.449Z,13.71
2022-12-23T01:12:28.290Z,13.78
2022-12-23T01:13:30.333Z,12.74
2022-12-23T01:14:32.976Z,12.75
2022-12-23T01:15:34.829Z,12.87
2022-12-23T01:16:38.912Z,12.68
2022-12-23T01:17:40.741Z,13.25
2022-12-23T01:18:42.530Z,12.09
2022-12-23T01:19:44.542Z,11.36
2022-12-23T01:20:46.374Z,11.74
2022-12-23T01:21:48.217Z,11.96
2022-12-23T01:22:50.094Z,12.24
2022-12-23T01:23:51.920Z,12.06
2022-12-23T01:24:53.796Z,13.07
2022-12-23T01:25:59.944Z,12.73
2022-12-23T01:27:01.814Z,13.38
2022-12-23T01:28:04.024Z,12.29
2022-12-23T01:29:06.100Z,12.83
2022-12-23T01:30:08.907Z,12.68
2022-12-23T01:31:11.265Z,13.45
2022-12-23T01:32:13.241Z,12.55
2022-12-23T01:33:15.410Z,13.53
2022-12-23T01:34:18.379Z,13.71
2022-12-23T01:35:20.494Z,13.30
2022-12-23T01:36:23.035Z,14.73
2022-12-23T01:37:24.929Z,13.72
2022-12-23T01:38:26.856Z,14.12
2022-12-23T01:39:28.612Z,13.21
2022-12-23T01:40:39.680Z,13.40
2022-12-23T01:42:00.158Z,14.18
2022-12-23T01:43:02.126Z,13.28
2022-12-23T01:44:42.918Z,14.19
2022-12-23T01:45:45.273Z,14.09
2022-12-23T01:46:47.440Z,12.82
2022-12-23T01:48:22.311Z,12.55
2022-12-23T01:49:24.495Z,12.95
2022-12-23T01:50:56.415Z,13.28
2022-12-23T01:51:58.545Z,12.75
2022-12-23T01:53:23.885Z,12.90
2022-12-23T01:54:25.677Z,13.13
2022-12-23T01:55:31.510Z,13.90
2022-12-23T01:56:39.554Z,12.72
2022-12-23T01:57:44.662Z,13.08
2022-12-23T01:58:53.665Z,12.85
2022-12-23T02:00:14.373Z,12.33
2022-12-23T02:01:38.621Z,13.07
2022-12-23T02:03:01.384Z,13.64
2022-12-23T02:04:07.732Z,13.14
2022-12-23T02:05:09.640Z,12.61
2022-12-23T02:06:32.251Z,13.16
2022-12-23T02:07:55.322Z,12.45
2022-12-23T02:09:16.109Z,12.76
2022-12-23T02:10:18.545Z,12.04
2022-12-23T02:11:37.868Z,13.39
2022-12-23T02:13:02.468Z,12.75
2022-12-23T02:14:39.830Z,13.04
2022-12-23T02:16:11.220Z,12.43
2022-12-23T02:17:44.003Z,14.20
2022-12-23T02:18:59.112Z,13.06
2022-12-23T02:20:22.813Z,13.09
2022-12-23T02:21:43.557Z,13.31
2022-12-23T02:23:40.404Z,12.22
2022-12-23T02:25:01.165Z,13.57
2022-12-23T02:26:35.956Z,13.38
2022-12-23T02:27:56.071Z,12.44
2022-12-23T02:29:03.876Z,12.21
2022-12-23T02:30:24.449Z,12.77
2022-12-23T02:31:29.089Z,13.98
2022-12-23T02:32:55.607Z,13.16
2022-12-23T02:34:20.640Z,12.53
2022-12-23T02:35:41.078Z,12.60
2022-12-23T02:37:10.990Z,13.71
2022-12-23T02:38:24.910Z,13.63
2022-12-23T02:39:40.492Z,12.78
2022-12-23T02:41:04.094Z,13.85
2022-12-23T02:42:15.417Z,13.89
2022-12-23T02:43:42.222Z,13.86
2022-12-23T02:45:17.352Z,13.61
2022-12-23T02:46:27.856Z,13.69
2022-12-23T02:47:39.814Z,13.98
2022-12-23T02:48:47.547Z,13.33
2022-12-23T02:49:58.910Z,13.78
2022-12-23T02:51:03.843Z,13.99
2022-12-23T02:52:17.631Z,13.77
2022-12-23T02:53:29.361Z,14.20
2022-12-23T02:54:38.783Z,14.11
2022-12-23T02:55:46.634Z,14.46
2022-12-23T02:56:53.271Z,13.40
2022-12-23T02:58:00.077Z,13.40
2022-12-23T02:59:09.303Z,13.82
2022-12-23T03:00:13.120Z,14.17
2022-12-23T03:01:18.222Z,14.42
2022-12-23T03:02:20.471Z,13.77
2022-12-23T03:03:24.249Z,13.83
2022-12-23T03:04:26.287Z,14.05
2022-12-23T03:05:33.811Z,14.29
2022-12-23T03:06:54.725Z,14.53
2022-12-23T03:08:02.750Z,14.96
2022-12-23T03:09:05.470Z,15.90
2022-12-23T03:10:26.125Z,15.55
2022-12-23T03:11:56.277Z,15.44
2022-12-23T03:13:16.541Z,14.51
2022-12-23T03:14:24.841Z,14.23
2022-12-23T03:15:38.933Z,14.44
2022-12-23T03:17:16.529Z,13.76
2022-12-23T03:19:15.787Z,15.80
2022-12-23T03:20:47.164Z,13.90
2022-12-23T03:22:10.334Z,14.35
2022-12-23T03:23:28.046Z,15.14
2022-12-23T03:24:58.931Z,15.23
2022-12-23T03:26:19.908Z,14.34
2022-12-23T03:27:44.843Z,16.75
2022-12-23T03:29:03.816Z,15.86
2022-12-23T03:30:17.285Z,14.97
2022-12-23T03:31:27.096Z,14.59
2022-12-23T03:32:36.605Z,14.93
2022-12-23T03:33:48.287Z,14.52
2022-12-23T03:34:57.544Z,14.56
2022-12-23T03:36:08.071Z,14.44
2022-12-23T03:37:15.996Z,14.98
2022-12-23T03:38:20.059Z,14.67
2022-12-23T03:39:28.901Z,15.00
2022-12-23T03:40:48.466Z,14.23
2022-12-23T03:42:01.929Z,15.52
2022-12-23T03:43:32.947Z,15.99
2022-12-23T03:45:03.699Z,15.59
2022-12-23T03:46:14.834Z,16.53
2022-12-23T03:47:28.311Z,16.32
2022-12-23T03:48:42.768Z,14.87
2022-12-23T03:49:52.838Z,15.52
2022-12-23T03:51:01.279Z,15.92
2022-12-23T03:52:14.517Z,15.64
2022-12-23T03:53:53.370Z,15.56
2022-12-23T03:55:00.247Z,15.97
2022-12-23T03:56:10.555Z,14.96
2022-12-23T03:57:14.992Z,13.81
2022-12-23T03:58:38.711Z,14.58
2022-12-23T03:59:50.604Z,13.89
2022-12-23T04:01:02.791Z,14.58
2022-12-23T04:02:05.152Z,16.20
2022-12-23T04:03:36.822Z,16.12
2022-12-23T04:05:02.611Z,15.61
2022-12-23T04:06:12.138Z,14.88
2022-12-23T04:07:21.419Z,15.13
2022-12-23T04:08:30.959Z,15.34
2022-12-23T04:09:36.118Z,14.56
2022-12-23T04:10:38.399Z,14.67
2022-12-23T04:11:41.080Z,14.41
2022-12-23T04:12:44.617Z,15.56
2022-12-23T04:13:48.933Z,15.81
2022-12-23T04:14:51.526Z,15.54
2022-12-23T04:15:54.104Z,14.77
2022-12-23T04:17:01.086Z,14.44
2022-12-23T04:18:02.962Z,14.43
2022-12-23T04:19:05.208Z,14.92
2022-12-23T04:20:07.753Z,15.37
2022-12-23T04:21:09.614Z,15.84
2022-12-23T04:22:15.428Z,18.45
2022-12-23T04:23:17.490Z,25.04
2022-12-23T04:24:19.422Z,20.93
2022-12-23T04:25:21.230Z,17.81
2022-12-23T04:26:22.978Z,14.14
2022-12-23T04:27:25.046Z,14.80
2022-12-23T04:28:26.873Z,14.23
2022-12-23T04:29:29.367Z,13.40
2022-12-23T04:30:34.259Z,13.37
2022-12-23T04:31:36.874Z,14.12
2022-12-23T04:32:39.534Z,14.00
2022-12-23T04:33:41.442Z,14.66
2022-12-23T04:34:43.439Z,16.13
2022-12-23T04:35:45.355Z,15.86
2022-12-23T04:36:47.181Z,14.60
2022-12-23T04:37:49.454Z,14.62
2022-12-23T04:38:51.488Z,16.05
2022-12-23T04:39:53.255Z,16.07
2022-12-23T04:40:55.042Z,19.33
2022-12-23T04:41:56.834Z,16.97
2022-12-23T04:42:58.858Z,17.17
2022-12-23T04:44:00.833Z,15.92
2022-12-23T04:45:02.875Z,17.99
2022-12-23T04:46:05.057Z,17.14
2022-12-23T04:47:06.953Z,17.22
2022-12-23T04:48:09.839Z,20.97
2022-12-23T04:49:11.939Z,18.31
2022-12-23T04:50:16.207Z,17.56
2022-12-23T04:51:18.274Z,18.09
2022-12-23T04:52:20.318Z,18.27
2022-12-23T04:53:22.475Z,18.69
2022-12-23T04:54:24.338Z,19.46
2022-12-23T04:55:26.162Z,19.62
2022-12-23T04:56:28.089Z,18.31
2022-12-23T04:57:29.921Z,17.29
2022-12-23T04:58:32.251Z,17.59
2022-12-23T04:59:34.204Z,16.75
2022-12-23T05:00:39.849Z,17.26
2022-12-23T05:01:43.154Z,18.58
2022-12-23T05:02:45.413Z,18.99
2022-12-23T05:03:47.572Z,18.38
2022-12-23T05:04:49.306Z,18.17
2022-12-23T05:05:51.141Z,18.74
2022-12-23T05:06:53.067Z,17.56
2022-12-23T05:08:04.392Z,18.63
2022-12-23T05:09:06.670Z,18.26
2022-12-23T05:10:09.447Z,19.55
2022-12-23T05:11:11.468Z,19.12
2022-12-23T05:12:13.342Z,20.08
2022-12-23T05:13:18.557Z,19.70
2022-12-23T05:14:37.514Z,19.74
2022-12-23T05:15:40.089Z,19.09
2022-12-23T05:16:41.961Z,18.69
2022-12-23T05:17:43.843Z,19.13
2022-12-23T05:18:45.720Z,19.39
2022-12-23T05:19:47.837Z,19.90
2022-12-23T05:20:50.503Z,18.90
2022-12-23T05:21:52.346Z,19.76
2022-12-23T05:22:54.721Z,20.93
2022-12-23T05:23:57.653Z,21.62
2022-12-23T05:24:59.819Z,21.53
2022-12-23T05:26:01.916Z,22.59
2022-12-23T05:27:03.915Z,24.23
2022-12-23T05:28:08.108Z,23.77
2022-12-23T05:29:09.993Z,22.71
2022-12-23T05:30:12.254Z,22.39
2022-12-23T05:31:14.847Z,22.94
2022-12-23T05:32:16.979Z,23.20
2022-12-23T05:33:20.000Z,22.24
2022-12-23T05:34:22.676Z,23.68
2022-12-23T05:35:26.505Z,22.75
2022-12-23T05:36:28.286Z,23.82
2022-12-23T05:37:30.354Z,25.15
2022-12-23T05:38:32.880Z,43.35
2022-12-23T05:39:34.668Z,45.76
2022-12-23T05:40:36.459Z,50.51
2022-12-23T05:41:38.771Z,32.65
2022-12-23T05:42:40.738Z,25.43
2022-12-23T05:43:43.026Z,42.68
2022-12-23T05:44:45.887Z,74.99
2022-12-23T05:45:48.099Z,70.82
2022-12-23T05:46:49.951Z,59.02
2022-12-23T05:47:51.780Z,32.42
2022-12-23T05:48:54.269Z,23.64
2022-12-23T05:49:56.116Z,24.90
2022-12-23T05:50:58.110Z,22.53
2022-12-23T05:52:00.103Z,25.27
2022-12-23T05:53:02.001Z,24.14
2022-12-23T05:54:04.093Z,22.23
2022-12-23T05:55:06.719Z,21.39
2022-12-23T05:56:08.826Z,20.33
2022-12-23T05:57:10.696Z,20.65
2022-12-23T05:58:13.380Z,21.83
2022-12-23T05:59:15.799Z,19.89
2022-12-23T06:00:18.330Z,21.10
2022-12-23T06:01:20.110Z,23.43
2022-12-23T06:02:22.366Z,20.72
2022-12-23T06:03:24.376Z,22.57
2022-12-23T06:04:26.485Z,22.70
2022-12-23T06:05:28.549Z,21.73
2022-12-23T06:06:30.394Z,21.60
2022-12-23T06:07:32.170Z,25.99
2022-12-23T06:08:34.254Z,26.16
2022-12-23T06:09:36.084Z,25.54
2022-12-23T06:10:37.888Z,22.78
2022-12-23T06:11:39.662Z,18.55
2022-12-23T06:12:42.634Z,18.54
2022-12-23T06:13:44.475Z,19.77
2022-12-23T06:14:46.302Z,19.89
2022-12-23T06:15:48.360Z,18.46
2022-12-23T06:16:51.716Z,19.88
2022-12-23T06:17:53.548Z,25.95
2022-12-23T06:18:56.326Z,22.54
2022-12-23T06:19:58.341Z,20.31
2022-12-23T06:21:00.486Z,21.34
2022-12-23T06:22:02.451Z,19.96
2022-12-23T06:23:04.594Z,19.05
2022-12-23T06:24:07.006Z,18.67
2022-12-23T06:25:09.063Z,17.75
2022-12-23T06:26:10.987Z,18.69
2022-12-23T06:27:12.858Z,19.46
2022-12-23T06:28:14.772Z,19.44
2022-12-23T06:29:16.921Z,19.94
2022-12-23T06:30:19.073Z,19.78
2022-12-23T06:31:21.330Z,18.90
2022-12-23T06:32:23.436Z,19.19
2022-12-23T06:33:25.410Z,17.50
2022-12-23T06:34:27.563Z,18.82
2022-12-23T06:35:29.435Z,17.70
2022-12-23T06:36:31.252Z,18.38
2022-12-23T06:37:33.064Z,18.78
2022-12-23T06:38:35.143Z,18.35
2022-12-23T06:39:36.994Z,18.22
2022-12-23T06:40:38.991Z,18.69
2022-12-23T06:41:41.089Z,19.50
2022-12-23T06:42:42.940Z,17.45
2022-12-23T06:43:44.717Z,18.16
2022-12-23T06:44:46.908Z,19.07
2022-12-23T06:45:49.675Z,19.83
2022-12-23T06:46:51.706Z,18.15
2022-12-23T06:47:53.588Z,16.92
2022-12-23T06:48:55.451Z,18.90
2022-12-23T06:49:57.588Z,17.84
2022-12-23T06:50:59.377Z,17.83
2022-12-23T06:52:01.365Z,18.33
2022-12-23T06:53:03.193Z,18.16
2022-12-23T06:54:05.336Z,18.87
2022-12-23T06:55:07.554Z,16.57
2022-12-23T06:56:09.799Z,17.22
2022-12-23T06:57:11.690Z,18.20
2022-12-23T06:58:13.672Z,17.01
2022-12-23T06:59:15.836Z,18.20
2022-12-23T07:00:18.262Z,18.64
2022-12-23T07:01:20.811Z,18.49
2022-12-23T07:02:23.875Z,17.77
2022-12-23T07:03:25.895Z,17.53
2022-12-23T07:04:27.863Z,17.28
2022-12-23T07:05:36.780Z,17.78
2022-12-23T07:06:39.892Z,16.96
2022-12-23T07:07:41.844Z,18.10
2022-12-23T07:08:43.692Z,17.97
2022-12-23T07:09:45.519Z,18.64
2022-12-23T07:10:47.379Z,17.52
2022-12-23T07:11:49.136Z,17.99
2022-12-23T07:12:51.204Z,20.99
2022-12-23T07:13:53.263Z,22.64
2022-12-23T07:14:55.082Z,22.20
2022-12-23T07:15:56.911Z,19.00
2022-12-23T07:16:58.877Z,18.08
2022-12-23T07:18:00.747Z,18.03
2022-12-23T07:19:02.613Z,16.75
2022-12-23T07:20:05.559Z,16.15
2022-12-23T07:21:15.530Z,17.64
2022-12-23T07:22:20.312Z,17.20
2022-12-23T07:23:22.670Z,18.06
2022-12-23T07:24:24.719Z,17.39
2022-12-23T07:25:26.670Z,18.21
2022-12-23T07:26:28.419Z,17.37
2022-12-23T07:27:30.277Z,16.57
2022-12-23T07:28:32.090Z,17.45
2022-12-23T07:29:33.948Z,16.68
2022-12-23T07:30:36.197Z,17.98
2022-12-23T07:31:41.046Z,16.46
2022-12-23T07:32:43.394Z,16.97
2022-12-23T07:33:45.224Z,16.91
2022-12-23T07:34:47.024Z,17.53
2022-12-23T07:35:48.813Z,17.21
2022-12-23T07:36:50.630Z,18.45
2022-12-23T07:37:55.487Z,19.18
2022-12-23T07:38:57.414Z,17.92
2022-12-23T07:40:02.247Z,18.04
2022-12-23T07:41:08.749Z,19.37
2022-12-23T07:42:43.573Z,18.86
2022-12-23T07:43:32.760Z,17.65
2022-12-23T07:44:34.616Z,19.46
2022-12-23T07:45:36.805Z,18.11
2022-12-23T07:46:39.660Z,18.75
2022-12-23T07:47:42.494Z,18.84
2022-12-23T07:48:44.448Z,19.91
2022-12-23T07:49:46.234Z,20.58
2022-12-23T07:50:48.037Z,20.19
2022-12-23T07:51:50.039Z,20.61
2022-12-23T07:52:53.142Z,21.99
2022-12-23T07:53:55.043Z,23.25
2022-12-23T07:54:56.893Z,22.02
2022-12-23T07:55:58.844Z,21.61
2022-12-23T07:57:00.687Z,21.72
2022-12-23T07:58:02.859Z,22.84
2022-12-23T07:59:05.100Z,21.92
2022-12-23T08:00:09.425Z,27.75
2022-12-23T08:01:18.937Z,24.74
2022-12-23T08:02:24.997Z,26.05
2022-12-23T08:03:27.417Z,29.85
2022-12-23T08:04:29.758Z,31.16
2022-12-23T08:05:31.736Z,27.32
2022-12-23T08:06:36.802Z,27.13
2022-12-23T08:07:39.081Z,27.42
2022-12-23T08:08:42.892Z,27.84
2022-12-23T08:09:44.964Z,28.26
2022-12-23T08:10:48.450Z,30.92
2022-12-23T08:11:50.606Z,29.44
2022-12-23T08:12:53.001Z,25.86
2022-12-23T08:13:55.463Z,23.94
2022-12-23T08:14:57.432Z,21.20
2022-12-23T08:16:01.422Z,22.22
2022-12-23T08:17:03.225Z,23.89
2022-12-23T08:18:05.412Z,25.19
2022-12-23T08:19:07.707Z,25.09
2022-12-23T08:20:10.378Z,23.43
2022-12-23T08:21:19.474Z,22.55
2022-12-23T08:22:22.663Z,25.92
2022-12-23T08:23:27.115Z,25.73
2022-12-23T08:24:29.131Z,24.95
2022-12-23T08:25:32.142Z,26.81
2022-12-23T08:26:34.197Z,23.36
2022-12-23T08:27:36.150Z,23.43
2022-12-23T08:28:40.463Z,21.52
2022-12-23T08:29:42.937Z,21.18
2022-12-23T08:30:44.935Z,21.21
2022-12-23T08:31:46.792Z,20.48
2022-12-23T08:32:48.567Z,19.21
2022-12-23T08:33:53.333Z,20.34
2022-12-23T08:34:57.478Z,18.84
2022-12-23T08:35:59.835Z,19.52
2022-12-23T08:37:02.302Z,19.85
2022-12-23T08:38:04.116Z,19.18
2022-12-23T08:39:10.672Z,19.82
2022-12-23T08:40:14.080Z,20.32
2022-12-23T08:41:20.352Z,18.41
2022-12-23T08:42:22.334Z,19.62
2022-12-23T08:43:27.688Z,20.81
2022-12-23T08:44:33.738Z,20.67
2022-12-23T08:45:38.740Z,19.36
2022-12-23T08:46:41.959Z,19.92
2022-12-23T08:47:43.770Z,18.83
2022-12-23T08:48:49.368Z,19.78
2022-12-23T08:49:51.808Z,20.65
2022-12-23T08:50:53.859Z,20.77
2022-12-23T08:51:55.789Z,21.45
2022-12-23T08:52:57.593Z,20.56
2022-12-23T08:54:01.581Z,19.85
2022-12-23T08:55:03.989Z,23.12
2022-12-23T08:56:10.053Z,27.94
2022-12-23T08:57:11.972Z,25.10
2022-12-23T08:58:16.363Z,24.42
2022-12-23T08:59:19.784Z,22.91
2022-12-23T09:00:22.196Z,23.37
2022-12-23T09:01:28.166Z,21.99
2022-12-23T09:02:30.409Z,22.96
2022-12-23T09:03:34.281Z,23.68
2022-12-23T09:04:36.899Z,22.53
2022-12-23T09:05:42.370Z,22.19
2022-12-23T09:06:45.624Z,21.03
2022-12-23T09:07:47.783Z,21.71
2022-12-23T09:08:50.599Z,21.22
2022-12-23T09:09:52.630Z,22.71
2022-12-23T09:10:54.517Z,23.79
2022-12-23T09:11:56.437Z,22.33
2022-12-23T09:12:58.823Z,22.99
2022-12-23T09:14:01.708Z,23.21
2022-12-23T09:15:03.809Z,23.92
2022-12-23T09:16:07.358Z,23.61
2022-12-23T09:17:09.268Z,22.21
2022-12-23T09:18:12.514Z,22.27
2022-12-23T09:19:14.450Z,21.87
2022-12-23T09:20:16.427Z,21.90
2022-12-23T09:21:22.649Z,21.03
2022-12-23T09:22:24.577Z,21.40
2022-12-23T09:23:27.477Z,21.77
2022-12-23T09:24:29.417Z,22.39
2022-12-23T09:25:32.592Z,22.36
2022-12-23T09:26:34.685Z,20.28
2022-12-23T09:27:36.516Z,21.46
2022-12-23T09:28:39.755Z,22.18
2022-12-23T09:29:41.621Z,21.83
2022-12-23T09:30:43.435Z,22.14
2022-12-23T09:31:45.374Z,23.00
2022-12-23T09:32:47.348Z,23.25
2022-12-23T09:33:51.708Z,21.15
2022-12-23T09:34:53.656Z,22.71
2022-12-23T09:36:00.235Z,24.02
2022-12-23T09:37:03.460Z,24.81
2022-12-23T09:38:06.780Z,22.13
2022-12-23T09:39:10.594Z,20.72
2022-12-23T09:40:14.750Z,19.92
2022-12-23T09:41:25.909Z,20.81
2022-12-23T09:42:46.486Z,22.30
2022-12-23T09:44:07.619Z,21.19
2022-12-23T09:45:55.050Z,22.08
2022-12-23T09:47:02.111Z,25.32
2022-12-23T09:48:14.382Z,27.83
2022-12-23T09:49:19.329Z,24.29
2022-12-23T09:50:32.489Z,22.76
2022-12-23T09:51:34.333Z,23.75
2022-12-23T09:52:57.833Z,22.48
2022-12-23T09:54:17.046Z,24.13
2022-12-23T09:55:28.453Z,25.62
2022-12-23T09:56:48.985Z,24.95
2022-12-23T09:58:08.948Z,25.14
2022-12-23T09:59:29.390Z,23.80
2022-12-23T10:00:42.852Z,23.04
2022-12-23T10:02:11.295Z,22.62
2022-12-23T10:03:48.406Z,22.68
2022-12-23T10:05:07.471Z,21.28
2022-12-23T10:06:23.058Z,21.48
2022-12-23T10:07:35.151Z,21.11
2022-12-23T10:08:44.242Z,19.87
2022-12-23T10:09:51.304Z,20.84
2022-12-23T10:11:16.135Z,20.51
2022-12-23T10:12:40.269Z,18.03
2022-12-23T10:13:51.307Z,19.48
2022-12-23T10:14:59.681Z,18.91
2022-12-23T10:16:13.541Z,18.51
2022-12-23T10:17:32.177Z,18.10
2022-12-23T10:18:52.732Z,18.38
2022-12-23T10:20:02.440Z,18.68
2022-12-23T10:21:25.413Z,17.90
2022-12-23T10:22:42.020Z,18.38
2022-12-23T10:23:51.113Z,17.08
2022-12-23T10:24:58.685Z,18.33
2022-12-23T10:26:15.513Z,18.65
2022-12-23T10:27:40.080Z,17.61
2022-12-23T10:28:41.968Z,19.17
2022-12-23T10:29:44.015Z,18.99
2022-12-23T10:31:39.192Z,18.95
2022-12-23T10:33:03.167Z,17.58
2022-12-23T10:34:22.643Z,17.63
2022-12-23T10:35:33.687Z,18.23
2022-12-23T10:36:47.222Z,17.09
2022-12-23T10:38:36.499Z,16.34
2022-12-23T10:40:02.207Z,16.44
2022-12-23T10:41:27.743Z,15.62
2022-12-23T10:42:46.374Z,16.01
2022-12-23T10:44:28.317Z,16.10
2022-12-23T10:46:01.411Z,16.59
2022-12-23T10:47:31.131Z,18.76
2022-12-23T10:48:55.031Z,19.68
2022-12-23T10:50:46.383Z,21.35
2022-12-23T10:51:53.907Z,18.42
2022-12-23T10:53:02.238Z,21.45
2022-12-23T10:54:12.834Z,21.84
2022-12-23T10:55:34.478Z,20.13
2022-12-23T10:56:37.210Z,19.30
2022-12-23T10:57:39.301Z,18.03
2022-12-23T10:58:45.693Z,17.90
2022-12-23T10:59:47.535Z,16.89
2022-12-23T11:00:56.339Z,17.52
2022-12-23T11:02:13.283Z,18.07
2022-12-23T11:03:31.087Z,16.30
2022-12-23T11:04:37.165Z,17.81
2022-12-23T11:05:40.515Z,18.41
2022-12-23T11:07:10.668Z,17.80
2022-12-23T11:08:13.257Z,18.71
2022-12-23T11:09:22.210Z,17.29
2022-12-23T11:10:32.814Z,21.22
2022-12-23T11:11:54.399Z,20.34
2022-12-23T11:12:56.360Z,19.39
2022-12-23T11:13:58.157Z,18.74
2022-12-23T11:15:00.042Z,18.19
2022-12-23T11:16:20.046Z,18.96
2022-12-23T11:17:25.133Z,17.19
2022-12-23T11:18:27.479Z,17.09
2022-12-23T11:19:29.550Z,18.45
2022-12-23T11:20:33.046Z,18.82
2022-12-23T11:21:35.643Z,18.87
2022-12-23T11:22:53.658Z,18.31
2022-12-23T11:24:15.140Z,17.69
2022-12-23T11:25:28.626Z,19.24
2022-12-23T11:26:31.303Z,18.66
2022-12-23T11:27:34.574Z,17.81
2022-12-23T11:28:52.645Z,17.74
2022-12-23T11:29:55.237Z,17.48
2022-12-23T11:31:00.594Z,17.77
2022-12-23T11:32:14.948Z,17.43
2022-12-23T11:33:26.033Z,17.43
2022-12-23T11:34:38.243Z,17.38
2022-12-23T11:35:40.293Z,18.23
2022-12-23T11:36:43.671Z,17.31
2022-12-23T11:37:45.630Z,18.23
2022-12-23T11:39:13.672Z,17.79
2022-12-23T11:40:26.050Z,17.47
2022-12-23T11:41:36.420Z,17.86
2022-12-23T11:42:41.641Z,18.11
2022-12-23T11:43:43.876Z,18.25
2022-12-23T11:44:53.518Z,18.74
2022-12-23T11:46:25.492Z,17.49
2022-12-23T11:47:44.258Z,16.60
2022-12-23T11:48:54.389Z,17.02
2022-12-23T11:50:05.296Z,18.35
2022-12-23T11:51:07.332Z,17.99
2022-12-23T11:52:09.409Z,17.96
2022-12-23T11:53:22.565Z,18.10
2022-12-23T11:54:24.648Z,16.60
2022-12-23T11:55:34.759Z,17.96
2022-12-23T11:56:40.530Z,18.31
2022-12-23T11:57:48.457Z,18.47
2022-12-23T11:59:07.812Z,18.40
2022-12-23T12:00:22.733Z,19.25
2022-12-23T12:01:26.059Z,20.32
2022-12-23T12:02:39.886Z,19.45
2022-12-23T12:03:59.405Z,18.50
2022-12-23T12:05:09.304Z,20.36
2022-12-23T12:06:17.170Z,20.93
2022-12-23T12:07:19.865Z,20.00
2022-12-23T12:08:28.513Z,19.75
2022-12-23T12:09:32.648Z,19.54
2022-12-23T12:10:39.733Z,18.05
2022-12-23T12:11:49.594Z,17.12
2022-12-23T12:12:57.153Z,16.77
2022-12-23T12:14:06.607Z,17.41
2022-12-23T12:15:34.151Z,17.19
2022-12-23T12:16:42.197Z,19.23
2022-12-23T12:17:49.912Z,19.48
2022-12-23T12:18:57.785Z,18.05
2022-12-23T12:20:12.882Z,18.03
2022-12-23T12:21:23.377Z,16.82
2022-12-23T12:22:39.301Z,16.14
2022-12-23T12:24:08.335Z,16.58
2022-12-23T12:25:18.005Z,16.59
2022-12-23T12:26:31.415Z,17.38
2022-12-23T12:27:39.528Z,18.80
2022-12-23T12:28:49.297Z,17.06
2022-12-23T12:30:02.070Z,16.88
2022-12-23T12:31:23.137Z,16.75
2022-12-23T12:32:49.753Z,16.02
2022-12-23T12:34:17.335Z,16.01
2022-12-23T12:35:46.923Z,17.03
2022-12-23T12:37:22.321Z,15.97
2022-12-23T12:38:26.435Z,17.24
2022-12-23T12:39:36.512Z,17.88
2022-12-23T12:40:51.029Z,18.42
2022-12-23T12:42:05.219Z,17.60
2022-12-23T12:43:31.906Z,19.47
2022-12-23T12:44:57.700Z,21.89
2022-12-23T12:46:09.037Z,24.64
2022-12-23T12:47:53.222Z,17.32
2022-12-23T12:49:22.733Z,16.50
2022-12-23T12:50:33.697Z,17.94
2022-12-23T12:52:03.970Z,17.29
2022-12-23T12:53:20.186Z,17.84
2022-12-23T12:54:42.428Z,18.93
2022-12-23T12:55:53.725Z,17.34
2022-12-23T12:56:58.213Z,16.63
2022-12-23T12:58:02.821Z,15.80
2022-12-23T12:59:04.892Z,16.63
2022-12-23T13:00:15.665Z,17.73
2022-12-23T13:01:46.413Z,16.91
2022-12-23T13:03:10.554Z,18.10
2022-12-23T13:04:51.840Z,18.52
2022-12-23T13:06:12.066Z,18.17
2022-12-23T13:07:40.838Z,17.52
2022-12-23T13:09:17.109Z,15.84
2022-12-23T13:10:22.076Z,17.46
2022-12-23T13:11:51.641Z,16.65
2022-12-23T13:13:24.659Z,16.64
2022-12-23T13:15:11.636Z,16.00
2022-12-23T13:16:41.989Z,17.56
2022-12-23T13:18:01.930Z,16.36
2022-12-23T13:19:29.473Z,16.10
2022-12-23T13:20:49.813Z,15.64
2022-12-23T13:22:00.771Z,16.61
2022-12-23T13:23:42.496Z,21.22
2022-12-23T13:25:00.359Z,22.11
2022-12-23T13:26:22.818Z,16.64
2022-12-23T13:27:28.343Z,15.56
2022-12-23T13:28:44.659Z,15.96
2022-12-23T13:30:32.440Z,15.54
2022-12-23T13:31:53.913Z,17.05
2022-12-23T13:33:25.916Z,19.62
2022-12-23T13:35:08.388Z,16.22
2022-12-23T13:36:42.521Z,16.97
2022-12-23T13:38:09.683Z,15.81
2022-12-23T13:39:33.150Z,16.65
2022-12-23T13:41:11.979Z,17.06
2022-12-23T13:42:27.915Z,17.32
2022-12-23T13:43:42.563Z,16.62
2022-12-23T13:44:45.788Z,17.54
2022-12-23T13:45:51.884Z,16.08
2022-12-23T13:47:06.358Z,15.41
2022-12-23T13:48:28.120Z,15.24
2022-12-23T13:49:57.841Z,16.03
2022-12-23T13:51:15.171Z,17.24
2022-12-23T13:52:48.331Z,18.21
2022-12-23T13:54:04.455Z,17.23
2022-12-23T13:55:25.257Z,16.58
2022-12-23T13:56:35.584Z,16.45
2022-12-23T13:58:07.111Z,17.01
2022-12-23T13:59:15.568Z,17.02
2022-12-23T14:00:17.402Z,17.23
2022-12-23T14:01:22.170Z,17.64
2022-12-23T14:02:36.717Z,18.29
2022-12-23T14:03:39.514Z,18.03
2022-12-23T14:05:00.557Z,17.35
2022-12-23T14:06:24.166Z,17.43
2022-12-23T14:07:30.535Z,17.63
2022-12-23T14:08:42.610Z,17.39
2022-12-23T14:10:09.376Z,16.37
2022-12-23T14:11:33.638Z,18.26
2022-12-23T14:12:39.880Z,18.01
2022-12-23T14:13:47.512Z,17.27
2022-12-23T14:15:04.536Z,17.45
2022-12-23T14:16:25.817Z,23.24
2022-12-23T14:17:50.060Z,27.33
2022-12-23T14:19:14.077Z,18.03
2022-12-23T14:20:41.259Z,16.54
2022-12-23T14:21:43.071Z,18.06
2022-12-23T14:23:23.138Z,17.39
2022-12-23T14:24:34.625Z,15.96
2022-12-23T14:25:58.102Z,16.17
2022-12-23T14:27:24.879Z,16.19
2022-12-23T14:28:39.050Z,16.20
2022-12-23T14:29:49.913Z,16.03
2022-12-23T14:30:52.396Z,15.83
2022-12-23T14:31:58.314Z,16.96
2022-12-23T14:33:21.844Z,15.97
2022-12-23T14:34:33.130Z,15.79
2022-12-23T14:35:42.375Z,15.56
2022-12-23T14:37:23.429Z,15.14
2022-12-23T14:38:30.861Z,15.68
2022-12-23T14:39:34.130Z,15.04
2022-12-23T14:40:39.243Z,17.95
2022-12-23T14:41:52.166Z,21.55
2022-12-23T14:43:27.432Z,18.58
2022-12-23T14:44:35.648Z,16.03
2022-12-23T14:45:44.819Z,16.96
2022-12-23T14:46:46.874Z,16.27
2022-12-23T14:47:49.320Z,16.32
2022-12-23T14:49:09.650Z,17.35
2022-12-23T14:50:34.233Z,15.18
2022-12-23T14:51:39.906Z,16.40
2022-12-23T14:52:58.590Z,16.82
2022-12-23T14:54:00.481Z,16.88
2022-12-23T14:55:30.580Z,17.18